sensor_id;sensor_type;location;lat;lon;timestamp;pressure;altitude;pressure_sealevel;temperature;humidity
35655;BME280;21773;50.010;19.972;2023-06-14T00:02:12;98665.25;;;17.44;84.03
35655;BME280;21773;50.010;19.972;2023-06-14T00:05:17;98658.69;;;17.45;83.98
35655;BME280;21773;50.010;19.972;2023-06-14T00:08:21;98659.25;;;17.47;84.19
35655;BME280;21773;50.010;19.972;2023-06-14T00:11:26;98653.53;;;17.49;83.67
35655;BME280;21773;50.010;19.972;2023-06-14T00:14:30;98661.16;;;17.52;83.62
35655;BME280;21773;50.010;19.972;2023-06-14T00:17:33;98656.25;;;17.54;83.53
35655;BME280;21773;50.010;19.972;2023-06-14T00:20:39;98668.25;;;17.58;83.65
35655;BME280;21773;50.010;19.972;2023-06-14T00:23:44;98663.34;;;17.60;83.45
35655;BME280;21773;50.010;19.972;2023-06-14T00:26:47;98660.63;;;17.60;83.47
35655;BME280;21773;50.010;19.972;2023-06-14T00:29:51;98656.00;;;17.65;83.15
35655;BME280;21773;50.010;19.972;2023-06-14T00:32:54;98654.34;;;17.69;82.93
35655;BME280;21773;50.010;19.972;2023-06-14T00:36:01;98655.47;;;17.73;82.74
35655;BME280;21773;50.010;19.972;2023-06-14T00:39:04;98657.06;;;17.80;82.67
35655;BME280;21773;50.010;19.972;2023-06-14T00:42:09;98663.91;;;17.77;82.74
35655;BME280;21773;50.010;19.972;2023-06-14T00:45:13;98647.00;;;17.70;82.84
35655;BME280;21773;50.010;19.972;2023-06-14T00:48:17;98652.44;;;17.70;83.54
35655;BME280;21773;50.010;19.972;2023-06-14T00:51:22;98647.81;;;17.70;84.30
35655;BME280;21773;50.010;19.972;2023-06-14T00:54:25;98645.66;;;17.72;84.32
35655;BME280;21773;50.010;19.972;2023-06-14T00:57:29;98648.06;;;17.74;84.27
35655;BME280;21773;50.010;19.972;2023-06-14T01:00:32;98644.00;;;17.77;84.22
35655;BME280;21773;50.010;19.972;2023-06-14T01:03:36;98643.72;;;17.78;84.01
35655;BME280;21773;50.010;19.972;2023-06-14T01:06:48;98636.09;;;17.75;84.27
35655;BME280;21773;50.010;19.972;2023-06-14T01:10:04;98637.16;;;17.74;83.95
35655;BME280;21773;50.010;19.972;2023-06-14T01:13:15;98629.00;;;17.74;84.17
35655;BME280;21773;50.010;19.972;2023-06-14T01:16:21;98636.09;;;17.75;84.72
35655;BME280;21773;50.010;19.972;2023-06-14T01:19:25;98632.00;;;17.78;84.36
35655;BME280;21773;50.010;19.972;2023-06-14T01:22:31;98635.56;;;17.78;85.78
35655;BME280;21773;50.010;19.972;2023-06-14T01:25:36;98627.06;;;17.80;86.22
35655;BME280;21773;50.010;19.972;2023-06-14T01:28:41;98627.38;;;17.78;85.92
35655;BME280;21773;50.010;19.972;2023-06-14T01:31:49;98620.81;;;17.74;85.40
35655;BME280;21773;50.010;19.972;2023-06-14T01:34:54;98615.91;;;17.76;85.96
35655;BME280;21773;50.010;19.972;2023-06-14T01:37:58;98618.06;;;17.79;87.29
35655;BME280;21773;50.010;19.972;2023-06-14T01:41:05;98616.72;;;17.82;86.64
35655;BME280;21773;50.010;19.972;2023-06-14T01:44:10;98614.81;;;17.82;86.75
35655;BME280;21773;50.010;19.972;2023-06-14T01:47:14;98609.63;;;17.86;86.42
35655;BME280;21773;50.010;19.972;2023-06-14T01:50:19;98618.34;;;17.88;85.94
35655;BME280;21773;50.010;19.972;2023-06-14T01:53:23;98612.09;;;17.87;86.15
35655;BME280;21773;50.010;19.972;2023-06-14T01:56:27;98610.69;;;17.90;86.13
35655;BME280;21773;50.010;19.972;2023-06-14T01:59:31;98619.44;;;17.92;85.76
35655;BME280;21773;50.010;19.972;2023-06-14T02:02:36;98626.25;;;17.89;85.92
35655;BME280;21773;50.010;19.972;2023-06-14T02:05:40;98620.81;;;17.79;85.66
35655;BME280;21773;50.010;19.972;2023-06-14T02:08:43;98618.38;;;17.72;85.02
35655;BME280;21773;50.010;19.972;2023-06-14T02:11:48;98616.47;;;17.63;85.09
35655;BME280;21773;50.010;19.972;2023-06-14T02:14:51;98619.19;;;17.58;85.40
35655;BME280;21773;50.010;19.972;2023-06-14T02:17:57;98611.53;;;17.55;85.38
35655;BME280;21773;50.010;19.972;2023-06-14T02:21:00;98613.47;;;17.59;85.65
35655;BME280;21773;50.010;19.972;2023-06-14T02:24:04;98610.19;;;17.57;85.43
35655;BME280;21773;50.010;19.972;2023-06-14T02:27:09;98607.72;;;17.51;85.56
35655;BME280;21773;50.010;19.972;2023-06-14T02:30:13;98608.28;;;17.48;85.38
35655;BME280;21773;50.010;19.972;2023-06-14T02:33:17;98610.72;;;17.44;85.53
35655;BME280;21773;50.010;19.972;2023-06-14T02:36:22;98604.16;;;17.40;85.54
35655;BME280;21773;50.010;19.972;2023-06-14T02:39:25;98610.75;;;17.49;85.26
35655;BME280;21773;50.010;19.972;2023-06-14T02:42:30;98608.00;;;17.49;85.12
35655;BME280;21773;50.010;19.972;2023-06-14T02:45:33;98612.63;;;17.49;85.34
35655;BME280;21773;50.010;19.972;2023-06-14T02:48:37;98603.66;;;17.38;85.44
35655;BME280;21773;50.010;19.972;2023-06-14T02:51:40;98605.28;;;17.29;85.00
35655;BME280;21773;50.010;19.972;2023-06-14T02:54:43;98609.09;;;17.28;85.14
35655;BME280;21773;50.010;19.972;2023-06-14T02:57:49;98615.09;;;17.25;85.13
35655;BME280;21773;50.010;19.972;2023-06-14T03:00:53;98611.53;;;17.24;85.00
35655;BME280;21773;50.010;19.972;2023-06-14T03:03:57;98613.16;;;17.20;85.11
35655;BME280;21773;50.010;19.972;2023-06-14T03:07:00;98612.34;;;17.15;85.27
35655;BME280;21773;50.010;19.972;2023-06-14T03:10:05;98610.16;;;17.17;85.10
35655;BME280;21773;50.010;19.972;2023-06-14T03:13:10;98608.81;;;17.19;84.96
35655;BME280;21773;50.010;19.972;2023-06-14T03:16:14;98615.88;;;17.20;85.51
35655;BME280;21773;50.010;19.972;2023-06-14T03:19:19;98612.38;;;17.20;85.82
35655;BME280;21773;50.010;19.972;2023-06-14T03:22:23;98622.44;;;17.19;86.13
35655;BME280;21773;50.010;19.972;2023-06-14T03:25:28;98621.63;;;17.19;86.03
35655;BME280;21773;50.010;19.972;2023-06-14T03:28:33;98616.97;;;17.14;86.69
35655;BME280;21773;50.010;19.972;2023-06-14T03:31:41;98619.13;;;17.07;87.48
35655;BME280;21773;50.010;19.972;2023-06-14T03:34:44;98614.50;;;16.98;88.69
35655;BME280;21773;50.010;19.972;2023-06-14T03:37:53;98605.50;;;16.97;89.27
35655;BME280;21773;50.010;19.972;2023-06-14T03:40:57;98620.19;;;16.96;89.94
35655;BME280;21773;50.010;19.972;2023-06-14T03:44:03;98611.22;;;17.01;90.19
35655;BME280;21773;50.010;19.972;2023-06-14T03:47:06;98617.78;;;17.00;89.97
35655;BME280;21773;50.010;19.972;2023-06-14T03:50:11;98622.41;;;16.99;90.26
35655;BME280;21773;50.010;19.972;2023-06-14T03:53:15;98622.09;;;17.01;90.11
35655;BME280;21773;50.010;19.972;2023-06-14T03:56:22;98614.50;;;16.98;90.47
35655;BME280;21773;50.010;19.972;2023-06-14T03:59:28;98618.03;;;17.03;90.29
35655;BME280;21773;50.010;19.972;2023-06-14T04:02:31;98622.94;;;17.01;90.70
35655;BME280;21773;50.010;19.972;2023-06-14T04:05:34;98626.75;;;17.00;90.80
35655;BME280;21773;50.010;19.972;2023-06-14T04:08:40;98618.84;;;16.99;91.52
35655;BME280;21773;50.010;19.972;2023-06-14T04:11:43;98619.41;;;16.91;91.73
35655;BME280;21773;50.010;19.972;2023-06-14T04:14:48;98631.31;;;16.74;93.13
35655;BME280;21773;50.010;19.972;2023-06-14T04:17:52;98633.50;;;16.77;93.85
35655;BME280;21773;50.010;19.972;2023-06-14T04:21:00;98637.88;;;16.83;93.73
35655;BME280;21773;50.010;19.972;2023-06-14T04:24:04;98633.50;;;16.77;94.16
35655;BME280;21773;50.010;19.972;2023-06-14T04:27:08;98637.59;;;16.80;94.19
35655;BME280;21773;50.010;19.972;2023-06-14T04:30:14;98628.84;;;16.73;94.25
35655;BME280;21773;50.010;19.972;2023-06-14T04:33:23;98642.75;;;16.81;94.35
35655;BME280;21773;50.010;19.972;2023-06-14T04:36:28;98645.78;;;16.85;94.56
35655;BME280;21773;50.010;19.972;2023-06-14T04:39:32;98640.06;;;16.92;93.99
35655;BME280;21773;50.010;19.972;2023-06-14T04:42:36;98638.16;;;16.92;94.27
35655;BME280;21773;50.010;19.972;2023-06-14T04:45:43;98646.06;;;16.88;93.75
35655;BME280;21773;50.010;19.972;2023-06-14T04:48:49;98638.69;;;16.84;94.70
35655;BME280;21773;50.010;19.972;2023-06-14T04:51:53;98646.03;;;16.83;94.58
35655;BME280;21773;50.010;19.972;2023-06-14T04:55:01;98635.41;;;16.82;95.27
35655;BME280;21773;50.010;19.972;2023-06-14T04:58:05;98640.34;;;16.85;95.59
35655;BME280;21773;50.010;19.972;2023-06-14T05:01:10;98637.34;;;16.86;95.60
35655;BME280;21773;50.010;19.972;2023-06-14T05:04:14;98620.72;;;16.78;95.70
35655;BME280;21773;50.010;19.972;2023-06-14T05:07:18;98640.31;;;16.75;96.05
35655;BME280;21773;50.010;19.972;2023-06-14T05:10:24;98640.88;;;16.92;95.79
35655;BME280;21773;50.010;19.972;2023-06-14T05:13:28;98636.25;;;16.87;95.56
35655;BME280;21773;50.010;19.972;2023-06-14T05:16:36;98640.63;;;16.88;95.98
35655;BME280;21773;50.010;19.972;2023-06-14T05:19:40;98644.72;;;16.96;95.89
35655;BME280;21773;50.010;19.972;2023-06-14T05:22:44;98651.28;;;17.05;95.36
35655;BME280;21773;50.010;19.972;2023-06-14T05:25:48;98643.91;;;17.11;95.29
35655;BME280;21773;50.010;19.972;2023-06-14T05:28:52;98644.22;;;17.14;94.97
35655;BME280;21773;50.010;19.972;2023-06-14T05:31:57;98649.13;;;17.22;94.80
35655;BME280;21773;50.010;19.972;2023-06-14T05:35:00;98645.06;;;17.20;94.83
35655;BME280;21773;50.010;19.972;2023-06-14T05:38:04;98653.22;;;17.20;94.41
35655;BME280;21773;50.010;19.972;2023-06-14T05:41:07;98654.56;;;17.22;94.69
35655;BME280;21773;50.010;19.972;2023-06-14T05:44:11;98654.03;;;17.30;94.21
35655;BME280;21773;50.010;19.972;2023-06-14T05:47:16;98648.06;;;17.39;95.00
35655;BME280;21773;50.010;19.972;2023-06-14T05:50:19;98654.34;;;17.44;94.79
35655;BME280;21773;50.010;19.972;2023-06-14T05:53:23;98654.88;;;17.51;94.58
35655;BME280;21773;50.010;19.972;2023-06-14T05:56:26;98655.16;;;17.60;94.42
35655;BME280;21773;50.010;19.972;2023-06-14T05:59:30;98663.34;;;17.65;94.09
35655;BME280;21773;50.010;19.972;2023-06-14T06:02:35;98667.19;;;17.69;93.15
35655;BME280;21773;50.010;19.972;2023-06-14T06:05:38;98664.47;;;17.69;93.27
35655;BME280;21773;50.010;19.972;2023-06-14T06:08:42;98659.53;;;17.66;92.91
35655;BME280;21773;50.010;19.972;2023-06-14T06:11:45;98668.28;;;17.68;93.20
35655;BME280;21773;50.010;19.972;2023-06-14T06:14:54;98672.09;;;17.72;93.30
35655;BME280;21773;50.010;19.972;2023-06-14T06:18:00;98673.44;;;17.74;93.70
35655;BME280;21773;50.010;19.972;2023-06-14T06:21:04;98675.63;;;17.78;92.90
35655;BME280;21773;50.010;19.972;2023-06-14T06:24:08;98674.25;;;17.80;93.05
35655;BME280;21773;50.010;19.972;2023-06-14T06:27:11;98678.06;;;17.89;92.29
35655;BME280;21773;50.010;19.972;2023-06-14T06:30:15;98681.34;;;17.96;92.50
35655;BME280;21773;50.010;19.972;2023-06-14T06:33:20;98673.97;;;17.97;92.48
35655;BME280;21773;50.010;19.972;2023-06-14T06:36:24;98681.88;;;18.03;91.80
35655;BME280;21773;50.010;19.972;2023-06-14T06:39:27;98696.31;;;18.04;91.60
35655;BME280;21773;50.010;19.972;2023-06-14T06:42:31;98695.25;;;18.00;92.87
35655;BME280;21773;50.010;19.972;2023-06-14T06:45:37;98702.91;;;18.03;92.39
35655;BME280;21773;50.010;19.972;2023-06-14T06:48:42;98702.06;;;18.07;92.60
35655;BME280;21773;50.010;19.972;2023-06-14T06:51:59;98702.06;;;18.07;92.21
35655;BME280;21773;50.010;19.972;2023-06-14T06:55:02;98702.31;;;18.11;93.13
35655;BME280;21773;50.010;19.972;2023-06-14T06:58:06;98703.41;;;18.15;93.23
35655;BME280;21773;50.010;19.972;2023-06-14T07:01:09;98709.13;;;18.24;92.99
35655;BME280;21773;50.010;19.972;2023-06-14T07:04:15;98705.31;;;18.19;92.57
35655;BME280;21773;50.010;19.972;2023-06-14T07:07:18;98712.41;;;18.21;92.14
35655;BME280;21773;50.010;19.972;2023-06-14T07:10:22;98708.59;;;18.16;92.45
35655;BME280;21773;50.010;19.972;2023-06-14T07:13:26;98703.97;;;18.22;93.05
35655;BME280;21773;50.010;19.972;2023-06-14T07:16:29;98713.22;;;18.31;92.85
35655;BME280;21773;50.010;19.972;2023-06-14T07:19:34;98722.47;;;18.40;92.55
35655;BME280;21773;50.010;19.972;2023-06-14T07:22:38;98726.00;;;18.46;92.44
35655;BME280;21773;50.010;19.972;2023-06-14T07:25:43;98724.34;;;18.50;92.43
35655;BME280;21773;50.010;19.972;2023-06-14T07:28:46;98736.63;;;18.52;92.12
35655;BME280;21773;50.010;19.972;2023-06-14T07:31:50;98731.47;;;18.56;91.75
35655;BME280;21773;50.010;19.972;2023-06-14T07:34:55;98733.66;;;18.54;91.86
35655;BME280;21773;50.010;19.972;2023-06-14T07:37:58;98736.94;;;18.61;91.41
35655;BME280;21773;50.010;19.972;2023-06-14T07:41:02;98739.91;;;18.65;91.67
35655;BME280;21773;50.010;19.972;2023-06-14T07:44:05;98731.97;;;18.73;92.29
35655;BME280;21773;50.010;19.972;2023-06-14T07:47:09;98734.41;;;18.75;91.39
35655;BME280;21773;50.010;19.972;2023-06-14T07:50:13;98742.06;;;18.73;92.21
35655;BME280;21773;50.010;19.972;2023-06-14T07:53:17;98740.16;;;18.73;91.84
35655;BME280;21773;50.010;19.972;2023-06-14T07:56:20;98738.22;;;18.79;91.38
35655;BME280;21773;50.010;19.972;2023-06-14T07:59:24;98742.84;;;18.83;91.36
35655;BME280;21773;50.010;19.972;2023-06-14T08:02:27;98750.47;;;18.91;91.86
35655;BME280;21773;50.010;19.972;2023-06-14T08:05:32;98745.78;;;19.02;92.60
35655;BME280;21773;50.010;19.972;2023-06-14T08:08:35;98738.09;;;19.09;92.21
35655;BME280;21773;50.010;19.972;2023-06-14T08:11:39;98735.06;;;19.16;92.28
35655;BME280;21773;50.010;19.972;2023-06-14T08:14:42;98736.06;;;19.35;92.00
35655;BME280;21773;50.010;19.972;2023-06-14T08:17:46;98729.72;;;19.50;92.29
35655;BME280;21773;50.010;19.972;2023-06-14T08:20:50;98736.66;;;19.71;92.21
35655;BME280;21773;50.010;19.972;2023-06-14T08:23:54;98735.78;;;19.80;90.47
35655;BME280;21773;50.010;19.972;2023-06-14T08:26:57;98734.34;;;19.88;89.80
35655;BME280;21773;50.010;19.972;2023-06-14T08:30:03;98734.06;;;19.89;88.56
35655;BME280;21773;50.010;19.972;2023-06-14T08:33:07;98738.94;;;19.98;87.91
35655;BME280;21773;50.010;19.972;2023-06-14T08:36:19;98751.94;;;20.11;87.48
35655;BME280;21773;50.010;19.972;2023-06-14T08:39:24;98747.50;;;20.20;87.01
35655;BME280;21773;50.010;19.972;2023-06-14T08:42:28;98749.66;;;20.23;85.63
35655;BME280;21773;50.010;19.972;2023-06-14T08:45:33;98744.47;;;20.21;86.14
35655;BME280;21773;50.010;19.972;2023-06-14T08:48:37;98750.13;;;20.30;85.34
35655;BME280;21773;50.010;19.972;2023-06-14T08:51:43;98749.28;;;20.35;85.99
35655;BME280;21773;50.010;19.972;2023-06-14T08:54:47;98755.34;;;20.31;85.78
35655;BME280;21773;50.010;19.972;2023-06-14T08:57:51;98761.34;;;20.28;85.09
35655;BME280;21773;50.010;19.972;2023-06-14T09:00:55;98757.56;;;20.24;86.57
35655;BME280;21773;50.010;19.972;2023-06-14T09:03:58;98766.38;;;20.21;86.63
35655;BME280;21773;50.010;19.972;2023-06-14T09:07:04;98762.81;;;20.21;86.39
35655;BME280;21773;50.010;19.972;2023-06-14T09:10:09;98769.97;;;20.17;87.98
35655;BME280;21773;50.010;19.972;2023-06-14T09:13:13;98766.91;;;20.18;87.71
35655;BME280;21773;50.010;19.972;2023-06-14T09:16:16;98759.31;;;20.15;87.75
35655;BME280;21773;50.010;19.972;2023-06-14T09:19:21;98767.22;;;20.17;88.89
35655;BME280;21773;50.010;19.972;2023-06-14T09:22:29;98772.16;;;20.15;88.65
35655;BME280;21773;50.010;19.972;2023-06-14T09:25:41;98769.44;;;20.15;88.24
35655;BME280;21773;50.010;19.972;2023-06-14T09:28:47;98770.25;;;20.15;88.95
35655;BME280;21773;50.010;19.972;2023-06-14T09:31:50;98770.25;;;20.15;86.87
35655;BME280;21773;50.010;19.972;2023-06-14T09:34:54;98774.66;;;20.11;87.52
35655;BME280;21773;50.010;19.972;2023-06-14T09:37:59;98778.50;;;20.10;87.60
35655;BME280;21773;50.010;19.972;2023-06-14T09:41:03;98776.59;;;20.11;90.01
35655;BME280;21773;50.010;19.972;2023-06-14T09:44:08;98775.22;;;20.13;89.63
35655;BME280;21773;50.010;19.972;2023-06-14T09:47:20;98768.81;;;20.23;89.71
35655;BME280;21773;50.010;19.972;2023-06-14T09:50:23;98767.09;;;20.37;90.82
35655;BME280;21773;50.010;19.972;2023-06-14T09:53:30;98760.69;;;20.47;89.10
35655;BME280;21773;50.010;19.972;2023-06-14T09:56:37;98768.75;;;20.62;87.41
35655;BME280;21773;50.010;19.972;2023-06-14T09:59:42;98766.47;;;20.69;88.66
35655;BME280;21773;50.010;19.972;2023-06-14T10:02:50;98762.59;;;20.75;87.79
35655;BME280;21773;50.010;19.972;2023-06-14T10:05:58;98760.59;;;20.81;87.45
35655;BME280;21773;50.010;19.972;2023-06-14T10:09:08;98771.44;;;20.91;87.14
35655;BME280;21773;50.010;19.972;2023-06-14T10:12:11;98770.50;;;21.00;86.76
35655;BME280;21773;50.010;19.972;2023-06-14T10:15:27;98777.84;;;21.05;87.14
35655;BME280;21773;50.010;19.972;2023-06-14T10:18:38;98777.53;;;21.06;86.26
35655;BME280;21773;50.010;19.972;2023-06-14T10:21:54;98783.84;;;21.07;85.17
35655;BME280;21773;50.010;19.972;2023-06-14T10:25:01;98781.41;;;21.05;84.03
35655;BME280;21773;50.010;19.972;2023-06-14T10:28:20;98769.09;;;21.03;83.85
35655;BME280;21773;50.010;19.972;2023-06-14T10:31:40;98781.88;;;21.12;84.47
35655;BME280;21773;50.010;19.972;2023-06-14T10:34:44;98772.78;;;21.17;85.01
35655;BME280;21773;50.010;19.972;2023-06-14T10:37:48;98778.47;;;21.26;84.77
35655;BME280;21773;50.010;19.972;2023-06-14T10:40:55;98784.09;;;21.34;83.08
35655;BME280;21773;50.010;19.972;2023-06-14T10:44:33;98782.75;;;21.50;80.50
35655;BME280;21773;50.010;19.972;2023-06-14T10:47:40;98785.97;;;21.57;78.75
35655;BME280;21773;50.010;19.972;2023-06-14T10:50:47;98772.19;;;21.63;79.67
35655;BME280;21773;50.010;19.972;2023-06-14T10:53:51;98777.88;;;21.66;78.67
35655;BME280;21773;50.010;19.972;2023-06-14T10:56:58;98771.22;;;21.72;79.27
35655;BME280;21773;50.010;19.972;2023-06-14T11:00:03;98766.75;;;21.76;78.68
35655;BME280;21773;50.010;19.972;2023-06-14T11:06:50;98766.09;;;21.84;78.49
35655;BME280;21773;50.010;19.972;2023-06-14T11:10:10;98771.28;;;21.86;79.86
35655;BME280;21773;50.010;19.972;2023-06-14T11:13:24;98766.34;;;21.69;76.50
35655;BME280;21773;50.010;19.972;2023-06-14T11:16:30;98765.44;;;21.55;76.71
35655;BME280;21773;50.010;19.972;2023-06-14T11:19:35;98759.06;;;21.59;78.88
35655;BME280;21773;50.010;19.972;2023-06-14T11:22:39;98763.81;;;21.73;78.37
35655;BME280;21773;50.010;19.972;2023-06-14T11:25:42;98759.13;;;21.92;79.64
35655;BME280;21773;50.010;19.972;2023-06-14T11:28:47;98759.72;;;22.08;79.96
35655;BME280;21773;50.010;19.972;2023-06-14T11:31:51;98754.50;;;22.38;78.60
35655;BME280;21773;50.010;19.972;2023-06-14T11:34:54;98755.63;;;22.83;76.31
35655;BME280;21773;50.010;19.972;2023-06-14T11:37:58;98754.88;;;23.46;74.01
35655;BME280;21773;50.010;19.972;2023-06-14T11:41:02;98747.91;;;24.21;72.47
35655;BME280;21773;50.010;19.972;2023-06-14T11:44:07;98754.88;;;24.49;66.01
35655;BME280;21773;50.010;19.972;2023-06-14T11:47:11;98752.09;;;24.71;65.68
35655;BME280;21773;50.010;19.972;2023-06-14T11:50:14;98750.03;;;24.77;64.21
35655;BME280;21773;50.010;19.972;2023-06-14T11:53:18;98741.88;;;24.72;65.26
35655;BME280;21773;50.010;19.972;2023-06-14T11:56:22;98739.38;;;24.92;62.93
35655;BME280;21773;50.010;19.972;2023-06-14T11:59:26;98718.38;;;25.14;60.72
35655;BME280;21773;50.010;19.972;2023-06-14T12:02:31;98719.91;;;25.54;58.23
35655;BME280;21773;50.010;19.972;2023-06-14T12:05:34;98723.97;;;25.82;57.93
35655;BME280;21773;50.010;19.972;2023-06-14T12:08:38;98729.03;;;25.89;53.43
35655;BME280;21773;50.010;19.972;2023-06-14T12:11:42;98736.50;;;25.88;55.64
35655;BME280;21773;50.010;19.972;2023-06-14T12:14:47;98730.47;;;25.95;55.35
35655;BME280;21773;50.010;19.972;2023-06-14T12:17:53;98705.97;;;25.85;52.78
35655;BME280;21773;50.010;19.972;2023-06-14T12:20:59;98726.91;;;25.77;51.27
35655;BME280;21773;50.010;19.972;2023-06-14T12:24:05;98728.84;;;25.77;54.75
35655;BME280;21773;50.010;19.972;2023-06-14T12:27:09;98723.19;;;25.65;52.64
35655;BME280;21773;50.010;19.972;2023-06-14T12:30:15;98721.88;;;25.62;53.93
35655;BME280;21773;50.010;19.972;2023-06-14T12:33:18;98720.91;;;25.58;52.66
35655;BME280;21773;50.010;19.972;2023-06-14T12:36:23;98717.75;;;25.51;54.70
35655;BME280;21773;50.010;19.972;2023-06-14T12:39:26;98720.91;;;25.84;53.91
35655;BME280;21773;50.010;19.972;2023-06-14T12:42:29;98706.75;;;26.03;51.40
35655;BME280;21773;50.010;19.972;2023-06-14T12:45:34;98707.19;;;26.30;53.40
35655;BME280;21773;50.010;19.972;2023-06-14T12:48:38;98699.88;;;26.35;50.51
35655;BME280;21773;50.010;19.972;2023-06-14T12:51:41;98706.75;;;26.66;49.90
35655;BME280;21773;50.010;19.972;2023-06-14T12:54:45;98706.97;;;26.99;47.97
35655;BME280;21773;50.010;19.972;2023-06-14T12:57:48;98708.56;;;27.30;49.38
35655;BME280;21773;50.010;19.972;2023-06-14T13:00:53;98709.38;;;27.30;46.05
35655;BME280;21773;50.010;19.972;2023-06-14T13:03:57;98706.31;;;27.52;48.29
35655;BME280;21773;50.010;19.972;2023-06-14T13:07:01;98702.91;;;27.47;46.67
35655;BME280;21773;50.010;19.972;2023-06-14T13:10:05;98702.72;;;27.52;45.92
35655;BME280;21773;50.010;19.972;2023-06-14T13:13:09;98709.44;;;27.42;45.59
35655;BME280;21773;50.010;19.972;2023-06-14T13:16:15;98706.88;;;27.37;45.30
35655;BME280;21773;50.010;19.972;2023-06-14T13:19:19;98708.56;;;27.30;45.71
35655;BME280;21773;50.010;19.972;2023-06-14T13:22:22;98711.53;;;27.25;44.18
35655;BME280;21773;50.010;19.972;2023-06-14T13:25:25;98705.31;;;27.07;45.23
35655;BME280;21773;50.010;19.972;2023-06-14T13:28:29;98704.09;;;27.17;44.45
35655;BME280;21773;50.010;19.972;2023-06-14T13:31:34;98710.81;;;27.36;43.77
35655;BME280;21773;50.010;19.972;2023-06-14T13:34:38;98701.31;;;27.46;44.95
35655;BME280;21773;50.010;19.972;2023-06-14T13:37:42;98697.72;;;27.66;44.08
35655;BME280;21773;50.010;19.972;2023-06-14T13:40:45;98702.94;;;27.68;43.08
35655;BME280;21773;50.010;19.972;2023-06-14T13:43:49;98652.84;;;27.10;42.97
35655;BME280;21773;50.010;19.972;2023-06-14T13:46:53;98696.25;;;27.19;42.93
35655;BME280;21773;50.010;19.972;2023-06-14T13:49:57;98697.84;;;26.99;42.87
35655;BME280;21773;50.010;19.972;2023-06-14T13:53:01;98698.38;;;26.84;44.83
35655;BME280;21773;50.010;19.972;2023-06-14T13:56:04;98698.28;;;26.71;43.49
35655;BME280;21773;50.010;19.972;2023-06-14T13:59:08;98699.31;;;26.58;43.40
35655;BME280;21773;50.010;19.972;2023-06-14T14:02:14;98687.22;;;26.25;43.40
35655;BME280;21773;50.010;19.972;2023-06-14T14:05:17;98702.03;;;26.29;45.16
35655;BME280;21773;50.010;19.972;2023-06-14T14:08:22;98704.59;;;26.17;45.20
35655;BME280;21773;50.010;19.972;2023-06-14T14:11:26;98697.31;;;26.04;45.61
35655;BME280;21773;50.010;19.972;2023-06-14T14:14:32;98692.16;;;25.85;46.27
35655;BME280;21773;50.010;19.972;2023-06-14T14:17:37;98697.81;;;25.71;47.08
35655;BME280;21773;50.010;19.972;2023-06-14T14:20:40;98707.09;;;25.67;46.06
35655;BME280;21773;50.010;19.972;2023-06-14T14:23:44;98698.34;;;25.65;45.77
35655;BME280;21773;50.010;19.972;2023-06-14T14:26:47;98710.97;;;25.66;43.21
35655;BME280;21773;50.010;19.972;2023-06-14T14:29:52;98685.50;;;25.69;45.48
35655;BME280;21773;50.010;19.972;2023-06-14T14:32:56;98707.41;;;26.08;46.60
35655;BME280;21773;50.010;19.972;2023-06-14T14:36:00;98705.28;;;26.14;46.00
35655;BME280;21773;50.010;19.972;2023-06-14T14:39:06;98708.38;;;25.95;46.75
35655;BME280;21773;50.010;19.972;2023-06-14T14:42:09;98708.72;;;25.76;47.43
35655;BME280;21773;50.010;19.972;2023-06-14T14:45:13;98711.63;;;25.54;47.42
35655;BME280;21773;50.010;19.972;2023-06-14T14:48:18;98718.56;;;25.26;47.29
35655;BME280;21773;50.010;19.972;2023-06-14T14:51:21;98710.53;;;25.07;48.85
35655;BME280;21773;50.010;19.972;2023-06-14T14:54:25;98710.19;;;24.91;49.89
35655;BME280;21773;50.010;19.972;2023-06-14T14:57:31;98704.94;;;24.81;49.48
35655;BME280;21773;50.010;19.972;2023-06-14T15:00:34;98696.31;;;24.74;49.41
35655;BME280;21773;50.010;19.972;2023-06-14T15:03:39;98690.78;;;24.66;49.19
35655;BME280;21773;50.010;19.972;2023-06-14T15:07:00;98687.38;;;24.69;51.38
35655;BME280;21773;50.010;19.972;2023-06-14T15:10:06;98692.44;;;24.84;51.98
35655;BME280;21773;50.010;19.972;2023-06-14T15:13:09;98691.00;;;24.86;49.99
35655;BME280;21773;50.010;19.972;2023-06-14T15:16:13;98692.44;;;24.75;50.59
35655;BME280;21773;50.010;19.972;2023-06-14T15:19:18;98689.13;;;24.65;51.27
35655;BME280;21773;50.010;19.972;2023-06-14T15:22:21;98695.88;;;24.50;50.99
35655;BME280;21773;50.010;19.972;2023-06-14T15:25:25;98696.44;;;24.30;52.10
35655;BME280;21773;50.010;19.972;2023-06-14T15:28:29;98688.13;;;24.21;52.40
35655;BME280;21773;50.010;19.972;2023-06-14T15:31:34;98696.31;;;24.12;53.10
35655;BME280;21773;50.010;19.972;2023-06-14T15:34:39;98690.06;;;23.98;52.87
35655;BME280;21773;50.010;19.972;2023-06-14T15:37:42;98684.25;;;23.78;53.71
35655;BME280;21773;50.010;19.972;2023-06-14T15:40:46;98679.38;;;23.74;53.99
35655;BME280;21773;50.010;19.972;2023-06-14T15:43:52;98684.94;;;23.83;54.22
35655;BME280;21773;50.010;19.972;2023-06-14T15:46:56;98677.69;;;23.87;54.46
35655;BME280;21773;50.010;19.972;2023-06-14T15:50:00;98677.69;;;23.87;53.59
35655;BME280;21773;50.010;19.972;2023-06-14T15:53:06;98687.44;;;23.93;52.26
35655;BME280;21773;50.010;19.972;2023-06-14T15:56:10;98680.25;;;23.84;51.16
35655;BME280;21773;50.010;19.972;2023-06-14T15:59:14;98688.56;;;23.92;51.86
35655;BME280;21773;50.010;19.972;2023-06-14T16:02:17;98690.94;;;23.85;51.29
35655;BME280;21773;50.010;19.972;2023-06-14T16:05:22;98680.13;;;23.89;50.82
35655;BME280;21773;50.010;19.972;2023-06-14T16:08:25;98684.00;;;23.88;50.24
35655;BME280;21773;50.010;19.972;2023-06-14T16:11:42;98680.00;;;23.94;51.43